createdAt,value
2023-04-18T00:00:10.936Z,100247.16
2023-04-18T00:03:15.965Z,100252.28
2023-04-18T00:06:19.473Z,100253.25
2023-04-18T00:09:22.232Z,100255.25
2023-04-18T00:12:25.022Z,100260.19
2023-04-18T00:15:29.365Z,100263.28
2023-04-18T00:18:32.103Z,100266.94
2023-04-18T00:21:35.326Z,100267.09
2023-04-18T00:24:38.161Z,100266.94
2023-04-18T00:27:41.746Z,100266.94
2023-04-18T00:30:44.508Z,100260.81
2023-04-18T00:33:47.185Z,100260.81
2023-04-18T00:36:49.861Z,100266.09
2023-04-18T00:39:54.067Z,100257.37
2023-04-18T00:42:56.777Z,100258.38
2023-04-18T00:46:01.680Z,100268.91
2023-04-18T00:49:04.699Z,100268.09
2023-04-18T00:52:07.435Z,100269.09
2023-04-18T00:55:10.669Z,100266.63
2023-04-18T00:58:13.461Z,100260.53
2023-04-18T01:01:16.397Z,100263.34
2023-04-18T01:04:19.160Z,100260.53
2023-04-18T01:07:22.374Z,100266.81
2023-04-18T01:10:25.633Z,100258.06
2023-04-18T01:13:28.285Z,100256.78
2023-04-18T01:16:34.570Z,100261.37
2023-04-18T01:19:40.539Z,100258.44
2023-04-18T01:22:43.313Z,100260.59
2023-04-18T01:25:47.084Z,100267.37
2023-04-18T01:28:49.827Z,100255.03
2023-04-18T01:31:52.656Z,100262.28
2023-04-18T01:34:55.269Z,100265.09
2023-04-18T01:37:58.554Z,100267.72
2023-04-18T01:41:02.577Z,100265.91
2023-04-18T01:44:05.836Z,100268.72
2023-04-18T01:47:08.470Z,100262.81
2023-04-18T01:50:11.356Z,100256.53
2023-04-18T01:53:13.987Z,100261.47
2023-04-18T01:56:16.839Z,100263.63
2023-04-18T01:59:19.603Z,100269.72
2023-04-18T02:02:22.512Z,100266.25
2023-04-18T02:05:27.241Z,100264.78
2023-04-18T02:08:31.041Z,100258.69
2023-04-18T02:11:33.697Z,100265.78
2023-04-18T02:14:36.731Z,100266.59
2023-04-18T02:17:39.524Z,100264.78
2023-04-18T02:20:42.256Z,100267.41
2023-04-18T02:23:45.307Z,100261.31
2023-04-18T02:26:48.073Z,100265.78
2023-04-18T02:29:50.993Z,100260.69
2023-04-18T02:32:54.919Z,100264.13
2023-04-18T02:35:57.566Z,100260.50
2023-04-18T02:39:00.860Z,100262.50
2023-04-18T02:42:03.823Z,100272.03
2023-04-18T02:45:07.818Z,100279.94
2023-04-18T02:48:10.607Z,100281.59
2023-04-18T02:51:13.519Z,100277.50
2023-04-18T02:54:16.614Z,100272.22
2023-04-18T02:57:19.511Z,100285.41
2023-04-18T03:00:22.173Z,100279.12
2023-04-18T03:03:24.962Z,100275.66
2023-04-18T03:06:27.739Z,100275.50
2023-04-18T03:09:30.662Z,100287.03
2023-04-18T03:12:33.530Z,100288.03
2023-04-18T03:15:36.263Z,100287.03
2023-04-18T03:18:38.852Z,100284.41
2023-04-18T03:21:41.723Z,100283.59
2023-04-18T03:24:44.561Z,100285.41
2023-04-18T03:27:47.349Z,100287.22
2023-04-18T03:30:50.856Z,100289.84
2023-04-18T03:33:53.859Z,100292.47
2023-04-18T03:36:56.651Z,100286.38
2023-04-18T03:39:59.308Z,100289.03
2023-04-18T03:43:02.192Z,100295.75
2023-04-18T03:46:04.939Z,100290.66
2023-04-18T03:49:07.799Z,100297.91
2023-04-18T03:52:10.842Z,100298.56
2023-04-18T03:55:13.653Z,100291.66
2023-04-18T03:58:16.470Z,100292.47
2023-04-18T04:01:19.130Z,100302.03
2023-04-18T04:04:21.902Z,100312.56
2023-04-18T04:07:24.639Z,100315.22
2023-04-18T04:10:27.369Z,100318.00
2023-04-18T04:13:30.026Z,100321.31
2023-04-18T04:16:32.762Z,100321.31
2023-04-18T04:19:35.591Z,100326.56
2023-04-18T04:22:38.291Z,100326.56
2023-04-18T04:25:41.005Z,100331.69
2023-04-18T04:28:46.727Z,100332.31
2023-04-18T04:31:49.599Z,100328.87
2023-04-18T04:34:52.440Z,100331.34
2023-04-18T04:37:55.240Z,100339.88
2023-04-18T04:40:58.479Z,100329.34
2023-04-18T04:44:02.015Z,100340.88
2023-04-18T04:47:05.038Z,100336.59
2023-04-18T04:50:13.436Z,100336.78
2023-04-18T04:53:16.158Z,100335.13
2023-04-18T04:56:18.821Z,100338.59
2023-04-18T04:59:21.456Z,100351.78
2023-04-18T05:02:24.426Z,100351.94
2023-04-18T05:05:28.615Z,100352.75
2023-04-18T05:08:31.523Z,100348.47
2023-04-18T05:11:34.761Z,100357.88
2023-04-18T05:14:37.465Z,100357.69
2023-04-18T05:17:40.248Z,100360.81
2023-04-18T05:20:42.942Z,100359.81
2023-04-18T05:23:46.579Z,100359.66
2023-04-18T05:26:49.454Z,100370.38
2023-04-18T05:29:52.835Z,100367.72
2023-04-18T05:32:55.764Z,100371.00
2023-04-18T05:35:58.912Z,100377.28
2023-04-18T05:39:02.036Z,100374.00
2023-04-18T05:42:05.004Z,100380.25
2023-04-18T05:45:08.412Z,100381.72
2023-04-18T05:48:11.268Z,100376.63
2023-04-18T05:51:13.960Z,100383.53
2023-04-18T05:54:17.233Z,100373.31
2023-04-18T05:57:20.165Z,100379.37
2023-04-18T06:00:23.061Z,100377.22
2023-04-18T06:03:26.089Z,100378.16
2023-04-18T06:06:29.073Z,100381.59
2023-04-18T06:09:31.611Z,100371.34
2023-04-18T06:12:34.313Z,100378.38
2023-04-18T06:15:37.050Z,100385.31
2023-04-18T06:18:39.852Z,100380.00
2023-04-18T06:21:42.996Z,100395.31
2023-04-18T06:24:45.608Z,100390.34
2023-04-18T06:27:48.301Z,100387.47
2023-04-18T06:30:51.245Z,100393.34
2023-04-18T06:33:54.000Z,100402.56
2023-04-18T06:36:56.699Z,100401.03
2023-04-18T06:39:59.412Z,100401.34
2023-04-18T06:43:02.094Z,100396.53
2023-04-18T06:46:05.517Z,100410.13
2023-04-18T06:49:08.377Z,100407.16
2023-04-18T06:52:11.398Z,100409.13
2023-04-18T06:55:14.449Z,100406.59
2023-04-18T06:58:17.386Z,100407.91
2023-04-18T07:01:20.233Z,100411.00
2023-04-18T07:04:23.206Z,100408.28
2023-04-18T07:07:26.640Z,100404.78
2023-04-18T07:10:29.959Z,100402.59
2023-04-18T07:13:32.743Z,100402.13
2023-04-18T07:16:35.606Z,100406.25
2023-04-18T07:19:38.722Z,100414.16
2023-04-18T07:22:41.719Z,100420.37
2023-04-18T07:25:44.565Z,100416.19
2023-04-18T07:28:47.412Z,100419.56
2023-04-18T07:31:50.154Z,100425.44
2023-04-18T07:34:53.053Z,100425.88
2023-04-18T07:37:55.830Z,100440.53
2023-04-18T07:40:59.713Z,100447.66
2023-04-18T07:44:02.869Z,100445.53
2023-04-18T07:47:10.300Z,100448.16
2023-04-18T07:50:13.115Z,100453.63
2023-04-18T07:53:15.868Z,100457.97
2023-04-18T07:56:19.017Z,100462.72
2023-04-18T07:59:21.826Z,100459.25
2023-04-18T08:02:24.686Z,100461.69
2023-04-18T08:05:27.901Z,100461.88
2023-04-18T08:08:30.663Z,100467.44
2023-04-18T08:11:34.017Z,100467.09
2023-04-18T08:14:36.664Z,100467.37
2023-04-18T08:17:39.446Z,100475.47
2023-04-18T08:20:42.277Z,100470.09
2023-04-18T08:23:45.179Z,100469.62
2023-04-18T08:26:47.915Z,100470.19
2023-04-18T08:29:50.666Z,100473.50
2023-04-18T08:32:53.409Z,100473.31
2023-04-18T08:35:56.341Z,100480.41
2023-04-18T08:38:59.454Z,100480.41
2023-04-18T08:42:03.415Z,100480.78
2023-04-18T08:45:07.155Z,100486.91
2023-04-18T08:48:14.250Z,100483.31
2023-04-18T08:51:16.904Z,100490.06
2023-04-18T08:54:21.084Z,100493.00
2023-04-18T08:57:26.995Z,100501.72
2023-04-18T09:00:30.666Z,100502.66
2023-04-18T09:03:43.407Z,100498.56
2023-04-18T09:06:55.488Z,100504.50
2023-04-18T09:09:58.390Z,100502.59
2023-04-18T09:13:05.772Z,100510.81
2023-04-18T09:16:08.966Z,100508.63
2023-04-18T09:19:19.153Z,100499.84
2023-04-18T09:22:22.138Z,100511.63
2023-04-18T09:25:29.610Z,100502.22
2023-04-18T09:28:33.634Z,100516.09
2023-04-18T09:31:55.228Z,100513.81
2023-04-18T09:35:04.776Z,100511.44
2023-04-18T09:38:08.197Z,100512.53
2023-04-18T09:41:12.160Z,100517.34
2023-04-18T09:44:17.390Z,100519.19
2023-04-18T09:47:20.417Z,100518.06
2023-04-18T09:50:23.327Z,100513.78
2023-04-18T09:53:26.233Z,100524.28
2023-04-18T09:56:32.123Z,100515.00
2023-04-18T10:00:03.995Z,100519.47
2023-04-18T10:03:10.884Z,100517.00
2023-04-18T10:06:16.717Z,100510.91
2023-04-18T10:09:20.017Z,100510.06
2023-04-18T10:12:23.048Z,100510.72
2023-04-18T10:15:28.132Z,100514.75
2023-04-18T10:18:31.181Z,100519.94
2023-04-18T10:21:34.638Z,100508.31
2023-04-18T10:24:53.811Z,100510.28
2023-04-18T10:27:58.566Z,100517.19
2023-04-18T10:31:05.863Z,100516.16
2023-04-18T10:34:08.685Z,100504.19
2023-04-18T10:37:13.277Z,100505.81
2023-04-18T10:40:16.239Z,100496.38
2023-04-18T10:43:19.014Z,100503.34
2023-04-18T10:46:31.665Z,100498.47
2023-04-18T10:49:38.615Z,100494.56
2023-04-18T10:52:42.836Z,100498.19
2023-04-18T10:55:52.727Z,100497.06
2023-04-18T10:58:56.361Z,100501.50
2023-04-18T11:02:11.296Z,100500.22
2023-04-18T11:05:19.522Z,100492.91
2023-04-18T11:08:24.870Z,100487.50
2023-04-18T11:11:27.560Z,100488.72
2023-04-18T11:15:01.461Z,100493.47
2023-04-18T11:18:05.082Z,100485.13
2023-04-18T11:21:08.113Z,100482.84
2023-04-18T11:24:11.203Z,100482.66
2023-04-18T11:27:14.406Z,100478.28
2023-04-18T11:30:17.670Z,100483.28
2023-04-18T11:33:20.581Z,100487.13
2023-04-18T11:36:23.435Z,100485.91
2023-04-18T11:39:26.216Z,100481.37
2023-04-18T11:42:29.185Z,100481.19
2023-04-18T11:45:32.225Z,100485.41
2023-04-18T11:48:39.186Z,100494.69
2023-04-18T11:51:46.396Z,100483.44
2023-04-18T11:54:49.109Z,100486.50
2023-04-18T11:57:53.726Z,100484.06
2023-04-18T12:00:56.467Z,100490.94
2023-04-18T12:04:07.808Z,100484.31
2023-04-18T12:07:10.829Z,100480.00
2023-04-18T12:10:19.982Z,100481.63
2023-04-18T12:13:31.214Z,100471.53
2023-04-18T12:16:34.030Z,100480.44
2023-04-18T12:19:37.471Z,100473.09
2023-04-18T12:22:49.714Z,100467.41
2023-04-18T12:26:07.616Z,100478.53
2023-04-18T12:29:10.406Z,100471.41
2023-04-18T12:32:13.159Z,100477.78
2023-04-18T12:35:17.138Z,100471.00
2023-04-18T12:38:22.801Z,100468.81
2023-04-18T12:41:25.673Z,100477.59
2023-04-18T12:44:28.401Z,100477.97
2023-04-18T12:47:31.797Z,100482.09
2023-04-18T12:50:35.042Z,100483.06
2023-04-18T12:53:37.887Z,100483.66
2023-04-18T12:56:40.952Z,100477.91
2023-04-18T12:59:43.679Z,100481.00
2023-04-18T13:02:46.659Z,100475.69
2023-04-18T13:05:49.810Z,100468.31
2023-04-18T13:08:52.563Z,100468.63
2023-04-18T13:11:55.423Z,100466.12
2023-04-18T13:14:58.211Z,100466.50
2023-04-18T13:18:05.153Z,100468.84
2023-04-18T13:21:08.456Z,100466.28
2023-04-18T13:24:11.233Z,100465.22
2023-04-18T13:27:14.922Z,100464.78
2023-04-18T13:30:17.694Z,100461.44
2023-04-18T13:33:20.490Z,100456.84
2023-04-18T13:36:24.349Z,100461.69
2023-04-18T13:39:28.185Z,100453.28
2023-04-18T13:42:30.853Z,100458.13
2023-04-18T13:45:33.525Z,100459.31
2023-04-18T13:48:36.390Z,100453.94
2023-04-18T13:51:39.447Z,100458.25
2023-04-18T13:54:42.155Z,100457.31
2023-04-18T13:57:44.875Z,100454.37
2023-04-18T14:00:47.499Z,100455.28
2023-04-18T14:03:50.384Z,100449.38
2023-04-18T14:06:53.165Z,100447.56
2023-04-18T14:09:55.900Z,100453.91
2023-04-18T14:12:58.573Z,100447.53
2023-04-18T14:16:01.505Z,100448.53
2023-04-18T14:19:04.389Z,100456.78
2023-04-18T14:22:08.134Z,100451.63
2023-04-18T14:25:10.762Z,100449.09
2023-04-18T14:28:13.434Z,100437.97
2023-04-18T14:31:16.696Z,100441.34
2023-04-18T14:34:19.587Z,100439.03
2023-04-18T14:37:22.442Z,100439.97
2023-04-18T14:40:25.282Z,100446.56
2023-04-18T14:43:28.236Z,100451.25
2023-04-18T14:46:31.192Z,100455.03
2023-04-18T14:49:34.114Z,100444.53
2023-04-18T14:52:36.852Z,100452.62
2023-04-18T14:55:39.589Z,100456.88
2023-04-18T14:58:43.054Z,100441.25
2023-04-18T15:01:45.905Z,100447.56
2023-04-18T15:04:48.967Z,100438.09
2023-04-18T15:07:52.292Z,100430.59
2023-04-18T15:10:55.050Z,100435.38
2023-04-18T15:13:57.742Z,100435.69
2023-04-18T15:17:00.668Z,100434.50
2023-04-18T15:20:06.359Z,100431.62
2023-04-18T15:23:11.883Z,100432.34
2023-04-18T15:26:14.522Z,100431.00
2023-04-18T15:29:17.215Z,100428.97
2023-04-18T15:32:21.267Z,100439.22
2023-04-18T15:35:24.449Z,100441.88
2023-04-18T15:38:27.323Z,100441.06
2023-04-18T15:41:30.548Z,100439.66
2023-04-18T15:44:33.383Z,100440.06
2023-04-18T15:47:36.350Z,100440.87
2023-04-18T15:50:39.229Z,100443.16
2023-04-18T15:53:41.864Z,100439.12
2023-04-18T15:56:44.969Z,100440.53
2023-04-18T15:59:47.963Z,100434.88
2023-04-18T16:02:50.789Z,100433.41
2023-04-18T16:05:53.500Z,100421.25
2023-04-18T16:08:56.279Z,100429.41
2023-04-18T16:11:59.074Z,100432.75
2023-04-18T16:15:01.785Z,100433.16
2023-04-18T16:18:05.788Z,100430.22
2023-04-18T16:21:08.534Z,100437.22
2023-04-18T16:24:11.718Z,100437.84
2023-04-18T16:27:14.474Z,100435.75
2023-04-18T16:30:17.162Z,100434.56
2023-04-18T16:33:24.750Z,100429.09
2023-04-18T16:36:27.538Z,100421.28
2023-04-18T16:39:31.316Z,100428.25
2023-04-18T16:42:34.305Z,100429.53
2023-04-18T16:45:37.013Z,100431.59
2023-04-18T16:48:41.882Z,100430.78
2023-04-18T16:51:44.618Z,100443.72
2023-04-18T16:54:50.134Z,100439.63
2023-04-18T16:57:54.686Z,100438.81
2023-04-18T17:00:57.793Z,100448.00
2023-04-18T17:04:00.699Z,100447.81
2023-04-18T17:07:03.605Z,100460.69
2023-04-18T17:10:08.796Z,100463.16
2023-04-18T17:13:12.988Z,100472.91
2023-04-18T17:16:18.889Z,100470.59
2023-04-18T17:19:23.260Z,100471.59
2023-04-18T17:22:29.644Z,100470.69
2023-04-18T17:25:32.667Z,100470.19
2023-04-18T17:28:36.406Z,100485.47
2023-04-18T17:31:40.019Z,100489.59
2023-04-18T17:34:47.016Z,100510.16
2023-04-18T17:37:53.191Z,100507.03
2023-04-18T17:41:01.671Z,100498.81
2023-04-18T17:44:08.570Z,100501.25
2023-04-18T17:47:11.661Z,100511.78
2023-04-18T17:50:14.699Z,100511.06
2023-04-18T17:53:19.099Z,100522.50
2023-04-18T17:56:22.794Z,100548.72
2023-04-18T17:59:28.564Z,100531.63
2023-04-18T18:02:31.705Z,100514.00
2023-04-18T18:05:34.817Z,100509.13
2023-04-18T18:08:38.386Z,100512.16
2023-04-18T18:11:55.806Z,100533.88
2023-04-18T18:15:05.178Z,100541.81
2023-04-18T18:18:09.646Z,100549.63
2023-04-18T18:21:14.868Z,100567.91
2023-04-18T18:24:19.518Z,100565.19
2023-04-18T18:27:23.153Z,100562.16
2023-04-18T18:30:28.590Z,100557.31
2023-04-18T18:33:36.669Z,100564.41
2023-04-18T18:36:40.469Z,100573.94
2023-04-18T18:39:44.452Z,100581.59
2023-04-18T18:42:51.503Z,100570.25
2023-04-18T18:45:54.763Z,100568.13
2023-04-18T18:49:01.197Z,100561.38
2023-04-18T18:52:05.664Z,100562.53
2023-04-18T18:55:10.001Z,100566.13
2023-04-18T18:58:13.395Z,100580.66
2023-04-18T19:01:16.518Z,100580.91
2023-04-18T19:04:21.246Z,100573.63
2023-04-18T19:07:24.979Z,100571.03
2023-04-18T19:10:28.800Z,100566.44
2023-04-18T19:13:33.113Z,100562.09
2023-04-18T19:16:37.919Z,100565.69
2023-04-18T19:19:42.240Z,100578.22
2023-04-18T19:22:45.631Z,100565.34
2023-04-18T19:25:49.071Z,100563.88
2023-04-18T19:28:53.029Z,100559.75
2023-04-18T19:31:56.666Z,100558.72
2023-04-18T19:35:00.314Z,100560.66
2023-04-18T19:38:03.476Z,100558.66
2023-04-18T19:41:06.535Z,100566.97
2023-04-18T19:44:12.607Z,100570.25
2023-04-18T19:47:15.829Z,100567.47
2023-04-18T19:50:18.960Z,100568.47
2023-04-18T19:53:23.653Z,100564.19
2023-04-18T19:56:27.156Z,100562.37
2023-04-18T19:59:30.136Z,100559.91
2023-04-18T20:02:33.343Z,100557.56
2023-04-18T20:05:36.951Z,100552.78
2023-04-18T20:08:41.750Z,100554.12
2023-04-18T20:11:45.034Z,100565.22
2023-04-18T20:14:48.032Z,100554.66
2023-04-18T20:17:51.249Z,100558.47
2023-04-18T20:20:54.294Z,100565.91
2023-04-18T20:24:00.471Z,100567.56
2023-04-18T20:27:03.250Z,100557.84
2023-04-18T20:30:06.962Z,100560.19
2023-04-18T20:33:09.960Z,100553.78
2023-04-18T20:36:14.272Z,100552.19
2023-04-18T20:39:17.795Z,100559.31
2023-04-18T20:42:21.233Z,100559.00
2023-04-18T20:45:25.006Z,100553.19
2023-04-18T20:48:28.457Z,100559.19
2023-04-18T20:51:32.107Z,100552.13
2023-04-18T20:54:34.839Z,100550.97
2023-04-18T20:57:37.582Z,100545.56
2023-04-18T21:00:41.620Z,100551.34
2023-04-18T21:03:44.873Z,100544.47
2023-04-18T21:06:47.988Z,100553.06
2023-04-18T21:09:50.893Z,100546.28
2023-04-18T21:12:53.641Z,100547.16
2023-04-18T21:15:59.333Z,100544.66
2023-04-18T21:19:02.230Z,100550.13
2023-04-18T21:22:05.105Z,100548.13
2023-04-18T21:25:08.199Z,100551.09
2023-04-18T21:28:12.406Z,100558.34
2023-04-18T21:31:15.296Z,100553.91
2023-04-18T21:34:18.134Z,100548.97
2023-04-18T21:37:20.803Z,100551.06
2023-04-18T21:40:24.481Z,100554.84
2023-04-18T21:43:27.257Z,100543.62
2023-04-18T21:46:29.931Z,100546.91
2023-04-18T21:49:32.983Z,100548.72
2023-04-18T21:52:36.006Z,100542.94
2023-04-18T21:55:38.709Z,100547.34
2023-04-18T21:58:41.328Z,100540.09
2023-04-18T22:01:47.154Z,100545.50
2023-04-18T22:04:52.773Z,100536.09
2023-04-18T22:07:58.543Z,100540.53
2023-04-18T22:11:01.764Z,100536.59
2023-04-18T22:14:04.552Z,100538.34
2023-04-18T22:17:07.185Z,100535.84
2023-04-18T22:20:10.982Z,100537.44
2023-04-18T22:23:16.849Z,100549.25
2023-04-18T22:26:21.472Z,100547.78
2023-04-18T22:29:24.270Z,100550.34
2023-04-18T22:32:27.341Z,100535.78
2023-04-18T22:35:32.941Z,100544.16
2023-04-18T22:38:35.727Z,100538.53
2023-04-18T22:41:38.504Z,100533.97
2023-04-18T22:44:41.202Z,100523.41
2023-04-18T22:47:46.852Z,100528.59
2023-04-18T22:50:50.120Z,100530.03
2023-04-18T22:53:53.045Z,100525.72
2023-04-18T22:56:56.082Z,100526.47
2023-04-18T22:59:58.845Z,100530.81
2023-04-18T23:03:01.726Z,100528.94
2023-04-18T23:06:07.569Z,100535.25
2023-04-18T23:09:10.194Z,100527.75
2023-04-18T23:12:14.785Z,100529.31
2023-04-18T23:15:17.774Z,100526.84
2023-04-18T23:18:20.739Z,100527.69
2023-04-18T23:21:23.621Z,100526.62
2023-04-18T23:24:26.373Z,100517.56
2023-04-18T23:27:29.099Z,100523.34
2023-04-18T23:30:31.818Z,100521.16
2023-04-18T23:33:34.980Z,100514.25
2023-04-18T23:36:37.776Z,100518.00
2023-04-18T23:39:40.909Z,100508.41
2023-04-18T23:42:44.102Z,100508.59
2023-04-18T23:45:46.939Z,100505.00
2023-04-18T23:48:49.699Z,100501.56
2023-04-18T23:51:52.356Z,100493.31
2023-04-18T23:54:55.643Z,100496.66
2023-04-18T23:57:58.675Z,100501.78
